Jessica Elizabeth — WDA8774 — position and weather

sailwx.info

Track history (hours):
 
Tides and Currents Weather Stations Pressure Air Temp Water Temp Dewpoint Dewpoint Depression Visibility Wind Speed Wind Dir Waves Ship Positions

Jessica Elizabeth

Owner: SEA SUPPLY INC, CUT OFF, LA. More information available from US FCC via Universal Licensing System and Coast Guard Vessel Documentation Center.

Last reported at 2018-May-22 15:16 UTC. Time now 2018-May-23 01:31 UTC.
Position N 29°48' W 093°20'.

Length 20 m; draft 2.6 m.

Type: Wing in ground effect craft. MMSI: 366857940.

Date/timePositionNaut miles runAvg speedWind from/ knotsBaromVisibWave heightAir tempDewpointWater temp
2018-May-22 15:16N 29°48' W 093°20'0 0.0
2018-May-22 14:52N 29°48' W 093°20'0 0.0
2018-May-22 13:11N 29°48' W 093°20'0 0.0
2018-May-22 13:00N 29°48' W 093°20'0 0.0
2018-May-22 12:30N 29°48' W 093°20'0 0.0
2018-May-22 08:25N 29°48' W 093°20'0 0.0
2018-May-22 06:26N 29°48' W 093°20'0 0.0
2018-May-22 05:42N 29°48' W 093°20'0 0.0
2018-May-22 05:30N 29°48' W 093°20'1 0.3
2018-May-22 01:00N 29°48' W 093°21'1 2.6
2018-May-22 00:30N 29°49' W 093°20'1 0.1
2018-May-21 10:09N 29°48' W 093°21'1 7.6
2018-May-21 10:00N 29°49' W 093°21'0 0.8
2018-May-21 09:30N 29°49' W 093°20'0 0.0
2018-May-21 09:00N 29°49' W 093°20'0 0.0
2018-May-21 08:09N 29°49' W 093°20'0 0.0
2018-May-21 07:42N 29°49' W 093°20'0 0.0
2018-May-21 07:30N 29°49' W 093°20'0 0.0
2018-May-21 07:00N 29°49' W 093°20'0 0.0
2018-May-21 06:21N 29°49' W 093°20'0 0.0
2018-May-21 05:54N 29°49' W 093°20'0 0.0
2018-May-21 05:21N 29°49' W 093°20'0 0.0
2018-May-21 05:00N 29°49' W 093°20'0 0.0
2018-May-21 04:30N 29°49' W 093°20'0 0.0
2018-May-21 04:00N 29°49' W 093°20'0 0.0
2018-May-21 03:30N 29°49' W 093°20'0 0.0
2018-May-21 03:00N 29°49' W 093°20'0 0.0
2018-May-21 02:30N 29°49' W 093°20'1 0.1
2018-May-20 12:03N 29°48' W 093°21'0 5.5
2018-May-20 11:59N 29°48' W 093°21'1 1.6
2018-May-20 11:22N 29°49' W 093°20'0 0.0
2018-May-20 10:57N 29°49' W 093°20'0 0.1
2018-May-20 10:30N 29°49' W 093°20'0 0.0
2018-May-19 02:41N 29°49' W 093°20'0 0.0
2018-May-19 02:26N 29°49' W 093°20'0 0.0
2018-May-19 01:42N 29°49' W 093°20'0 0.0
2018-May-19 01:30N 29°49' W 093°20'0 0.0
2018-May-18 18:31N 29°49' W 093°20'7814.7
2018-May-18 13:15N 28°32' W 093°28'519.8
2018-May-18 13:00N 28°27' W 093°29'27 8.7
2018-May-18 09:52N 28°00' W 093°32'0 0.2
2018-May-18 09:16N 28°00' W 093°32'0 0.3
2018-May-18 08:46N 28°00' W 093°32'0 0.5
2018-May-18 08:24N 28°00' W 093°31'0 0.6
2018-May-18 07:41N 28°00' W 093°32'0 0.0
2018-May-18 07:16N 28°00' W 093°32'0 0.0
2018-May-18 06:54N 28°00' W 093°32'2 4.6
2018-May-18 06:25N 28°02' W 093°31'918.1
2018-May-18 05:57N 28°11' W 093°30'818.8
2018-May-18 05:31N 28°19' W 093°29'1018.9
2018-May-18 05:00N 28°29' W 093°29'918.8
2018-May-18 04:30N 28°38' W 093°28'918.7
2018-May-18 04:00N 28°47' W 093°27'918.3
2018-May-18 03:30N 28°56' W 093°26'1018.7
2018-May-18 03:00N 29°06' W 093°25'918.6
2018-May-18 02:30N 29°15' W 093°24'918.3
2018-May-18 02:00N 29°24' W 093°23'817.1
2018-May-18 01:30N 29°33' W 093°22'916.9
2018-May-18 01:00N 29°41' W 093°21'612.4
2018-May-18 00:30N 29°47' W 093°21'2 2.9
2018-May-17 23:48N 29°49' W 093°20'0 0.0
2018-May-17 23:27N 29°49' W 093°20'1 1.9
2018-May-17 23:01N 29°49' W 093°21'1 2.8
2018-May-17 22:29N 29°48' W 093°20'0 0.0
2018-May-17 21:59N 29°48' W 093°20'0 0.0
2018-May-17 20:59N 29°48' W 093°20'0 0.0
2018-May-17 20:20N 29°48' W 093°20'0 0.0
2018-May-17 19:41N 29°48' W 093°20'0 0.0
2018-May-17 19:26N 29°48' W 093°20'0 0.0
2018-May-17 18:56N 29°48' W 093°20'0 0.0
2018-May-17 18:26N 29°48' W 093°20'0 0.0
2018-May-17 18:00N 29°48' W 093°20'2 0.1
2018-May-17 05:30N 29°49' W 093°21'1 0.9
2018-May-17 04:45N 29°49' W 093°20'0 0.3
2018-May-17 04:14N 29°49' W 093°20'0 0.0
2018-May-17 03:47N 29°49' W 093°20'0 0.0
2018-May-17 03:30N 29°49' W 093°20'0 0.9
2018-May-17 03:00N 29°49' W 093°21'3 4.7
2018-May-17 02:27N 29°46' W 093°21'0 0.0
2018-May-17 02:00N 29°46' W 093°21'0 0.0
2018-May-17 01:30N 29°46' W 093°21'0 0.0
2018-May-17 00:58N 29°46' W 093°21'0 0.0
2018-May-17 00:30N 29°46' W 093°21'612.2
2018-May-17 00:00N 29°40' W 093°20'918.2
2018-May-16 23:30N 29°31' W 093°22'917.9
2018-May-16 23:00N 29°22' W 093°23'1019.3
2018-May-16 22:30N 29°13' W 093°24'1019.5
2018-May-16 21:58N 29°03' W 093°25'44 8.0
2018-May-16 16:28N 28°19' W 093°29'920.1
2018-May-16 16:00N 28°28' W 093°28'1120.3
2018-May-16 15:28N 28°39' W 093°27'1120.4
2018-May-16 14:55N 28°50' W 093°26'920.1
2018-May-16 14:27N 28°59' W 093°26'920.1
2018-May-16 13:59N 29°08' W 093°24'1019.8
2018-May-16 13:30N 29°18' W 093°23'1018.9
2018-May-16 13:00N 29°27' W 093°22'918.8
2018-May-16 12:30N 29°37' W 093°21'816.2
2018-May-16 12:00N 29°45' W 093°21'3 6.5
2018-May-16 11:30N 29°48' W 093°21'1 2.2
2018-May-16 11:00N 29°49' W 093°20'0 0.0
2018-May-16 10:30N 29°49' W 093°20'0 0.0
2018-May-16 10:00N 29°49' W 093°20'0 0.0
2018-May-16 09:30N 29°49' W 093°20'0 0.0
2018-May-16 09:00N 29°49' W 093°20'0 0.0
2018-May-16 08:27N 29°49' W 093°20'0 0.0
2018-May-16 08:00N 29°49' W 093°20'0 0.0
2018-May-16 07:30N 29°49' W 093°20'0 0.0
2018-May-16 07:00N 29°49' W 093°20'0 0.0
2018-May-16 06:30N 29°49' W 093°20'0 0.0
2018-May-16 05:57N 29°49' W 093°20'0 0.2
2018-May-16 05:29N 29°49' W 093°20'0 0.2
2018-May-16 04:59N 29°49' W 093°20'0 0.0
2018-May-16 04:30N 29°49' W 093°20'0 0.0
2018-May-16 04:00N 29°49' W 093°20'0 0.0
2018-May-16 03:30N 29°49' W 093°20'0 0.0
2018-May-16 03:01N 29°49' W 093°20'1 1.9
2018-May-16 02:30N 29°48' W 093°21'3 5.2
2018-May-16 02:00N 29°46' W 093°21'714.4
2018-May-16 01:30N 29°39' W 093°21'918.1
2018-May-16 01:01N 29°30' W 093°22'917.8
2018-May-16 00:30N 29°21' W 093°23'1019.1
2018-May-15 23:58N 29°10' W 093°24'1619.5
2018-May-15 23:08N 28°54' W 093°26'319.6
2018-May-15 22:59N 28°51' W 093°26'2419.4
2018-May-15 21:46N 28°28' W 093°29'619.2
2018-May-15 21:26N 28°22' W 093°29'819.2
2018-May-15 21:00N 28°13' W 093°30'1317.9
2018-May-15 20:16N 28°00' W 093°32'0 0.1
2018-May-15 20:00N 28°00' W 093°32'712.2
2018-May-15 19:27N 28°07' W 093°31'3620.4
2018-May-15 17:43N 28°42' W 093°26'620.4
2018-May-15 17:24N 28°48' W 093°25'819.9
2018-May-15 17:00N 28°57' W 093°26'1019.9
2018-May-15 16:29N 29°07' W 093°25'919.6
2018-May-15 16:00N 29°16' W 093°24'1019.3
2018-May-15 15:30N 29°26' W 093°22'918.4
2018-May-15 15:00N 29°35' W 093°22'917.2
2018-May-15 14:30N 29°43' W 093°21'510.0
2018-May-15 14:00N 29°48' W 093°21'1 2.1
2018-May-15 13:30N 29°49' W 093°20'0 0.0
2018-May-15 12:58N 29°49' W 093°20'0 0.0
2018-May-15 12:30N 29°49' W 093°20'1 1.5
2018-May-15 12:00N 29°49' W 093°21'612.0
2018-May-15 11:30N 29°43' W 093°20'917.0
2018-May-15 10:58N 29°34' W 093°21'817.6
2018-May-15 10:30N 29°26' W 093°22'918.5
2018-May-15 10:00N 29°16' W 093°23'1019.3
2018-May-15 09:30N 29°07' W 093°25'1019.7
2018-May-15 08:59N 28°57' W 093°25'1020.1
2018-May-15 08:30N 28°47' W 093°26'1120.4
2018-May-15 07:59N 28°37' W 093°28'1120.4
2018-May-15 07:27N 28°26' W 093°29'920.6
2018-May-15 07:00N 28°16' W 093°30'1020.2
2018-May-15 06:30N 28°06' W 093°31'612.0
2018-May-15 05:58N 28°00' W 093°32'0 0.0
2018-May-15 05:30N 28°00' W 093°32'4 8.7
2018-May-15 05:00N 28°04' W 093°31'1018.0
2018-May-15 04:25N 28°15' W 093°30'718.3
2018-May-15 04:00N 28°22' W 093°30'918.4
2018-May-15 03:30N 28°31' W 093°28'918.3
2018-May-15 03:01N 28°41' W 093°27'918.0
2018-May-15 02:30N 28°50' W 093°27'918.1
2018-May-15 01:59N 28°59' W 093°26'918.3
2018-May-15 01:30N 29°08' W 093°24'918.0
2018-May-15 01:00N 29°17' W 093°24'917.7
2018-May-15 00:30N 29°25' W 093°23'917.1
2018-May-15 00:00N 29°34' W 093°21'1016.4
2018-May-14 23:24N 29°44' W 093°20'410.2
2018-May-14 22:59N 29°48' W 093°21'1 2.8
2018-May-14 22:30N 29°49' W 093°20'0 0.0
2018-May-14 22:00N 29°49' W 093°20'3 1.5
2018-May-14 20:06N 29°46' W 093°21'1 4.0
2018-May-14 19:57N 29°47' W 093°21'2 5.3
2018-May-14 19:30N 29°49' W 093°20'0 0.0
2018-May-14 19:00N 29°49' W 093°20'0 0.0
2018-May-14 18:29N 29°49' W 093°20'0 0.5
2018-May-14 17:57N 29°49' W 093°21'3 7.1
2018-May-14 17:30N 29°46' W 093°21'612.6
2018-May-14 17:01N 29°40' W 093°21'1218.7
2018-May-14 16:21N 29°27' W 093°22'919.6
2018-May-14 15:54N 29°19' W 093°23'920.3
2018-May-14 15:29N 29°10' W 093°25'1120.2
2018-May-14 14:56N 28°59' W 093°26'920.4
2018-May-14 14:30N 28°51' W 093°26'1020.6
2018-May-14 14:00N 28°40' W 093°27'1121.0
2018-May-14 13:30N 28°30' W 093°28'1121.4
2018-May-14 13:00N 28°19' W 093°29'1121.3
2018-May-14 12:30N 28°09' W 093°30'6 2.5
2018-May-14 10:10N 28°14' W 093°30'418.2
2018-May-14 09:55N 28°19' W 093°29'819.0
2018-May-14 09:30N 28°27' W 093°28'918.9
2018-May-14 09:00N 28°36' W 093°28'1019.2
2018-May-14 08:31N 28°46' W 093°27'918.6
2018-May-14 08:00N 28°55' W 093°26'1019.2
2018-May-14 07:31N 29°04' W 093°25'918.8
2018-May-14 07:01N 29°14' W 093°24'1118.5
2018-May-14 06:24N 29°25' W 093°23'2413.9
2018-May-14 04:39N 29°49' W 093°20'0 0.2
2018-May-14 04:14N 29°49' W 093°20'2 0.1
2018-May-12 18:02N 29°48' W 093°20'0 0.0
2018-May-12 17:44N 29°48' W 093°20'  
Track history (hours):
 
Tides and Currents Weather Stations Pressure Air Temp Water Temp Dewpoint Dewpoint Depression Visibility Wind Speed Wind Dir Waves Ship Positions

Jessica Elizabeth

Owner: SEA SUPPLY INC, CUT OFF, LA. More information available from US FCC via Universal Licensing System and Coast Guard Vessel Documentation Center.

Last reported at 2018-May-22 15:16 UTC. Time now 2018-May-23 01:31 UTC.
Position N 29°48' W 093°20'.

Length 20 m; draft 2.6 m.

Type: Wing in ground effect craft. MMSI: 366857940.

Date/timePositionNaut miles runAvg speedWind from/ knotsBaromVisibWave heightAir tempDewpointWater temp
2018-May-22 15:16N 29°48' W 093°20'0 0.0
2018-May-22 14:52N 29°48' W 093°20'0 0.0
2018-May-22 13:11N 29°48' W 093°20'0 0.0
2018-May-22 13:00N 29°48' W 093°20'0 0.0
2018-May-22 12:30N 29°48' W 093°20'0 0.0
2018-May-22 08:25N 29°48' W 093°20'0 0.0
2018-May-22 06:26N 29°48' W 093°20'0 0.0
2018-May-22 05:42N 29°48' W 093°20'0 0.0
2018-May-22 05:30N 29°48' W 093°20'1 0.3
2018-May-22 01:00N 29°48' W 093°21'1 2.6
2018-May-22 00:30N 29°49' W 093°20'1 0.1
2018-May-21 10:09N 29°48' W 093°21'1 7.6
2018-May-21 10:00N 29°49' W 093°21'0 0.8
2018-May-21 09:30N 29°49' W 093°20'0 0.0
2018-May-21 09:00N 29°49' W 093°20'0 0.0
2018-May-21 08:09N 29°49' W 093°20'0 0.0
2018-May-21 07:42N 29°49' W 093°20'0 0.0
2018-May-21 07:30N 29°49' W 093°20'0 0.0
2018-May-21 07:00N 29°49' W 093°20'0 0.0
2018-May-21 06:21N 29°49' W 093°20'0 0.0
2018-May-21 05:54N 29°49' W 093°20'0 0.0
2018-May-21 05:21N 29°49' W 093°20'0 0.0
2018-May-21 05:00N 29°49' W 093°20'0 0.0
2018-May-21 04:30N 29°49' W 093°20'0 0.0
2018-May-21 04:00N 29°49' W 093°20'0 0.0
2018-May-21 03:30N 29°49' W 093°20'0 0.0
2018-May-21 03:00N 29°49' W 093°20'0 0.0
2018-May-21 02:30N 29°49' W 093°20'1 0.1
2018-May-20 12:03N 29°48' W 093°21'0 5.5
2018-May-20 11:59N 29°48' W 093°21'1 1.6
2018-May-20 11:22N 29°49' W 093°20'0 0.0
2018-May-20 10:57N 29°49' W 093°20'0 0.1
2018-May-20 10:30N 29°49' W 093°20'0 0.0
2018-May-19 02:41N 29°49' W 093°20'0 0.0
2018-May-19 02:26N 29°49' W 093°20'0 0.0
2018-May-19 01:42N 29°49' W 093°20'0 0.0
2018-May-19 01:30N 29°49' W 093°20'0 0.0
2018-May-18 18:31N 29°49' W 093°20'7814.7
2018-May-18 13:15N 28°32' W 093°28'519.8
2018-May-18 13:00N 28°27' W 093°29'27 8.7
2018-May-18 09:52N 28°00' W 093°32'0 0.2
2018-May-18 09:16N 28°00' W 093°32'0 0.3
2018-May-18 08:46N 28°00' W 093°32'0 0.5
2018-May-18 08:24N 28°00' W 093°31'0 0.6
2018-May-18 07:41N 28°00' W 093°32'0 0.0
2018-May-18 07:16N 28°00' W 093°32'0 0.0
2018-May-18 06:54N 28°00' W 093°32'2 4.6
2018-May-18 06:25N 28°02' W 093°31'918.1
2018-May-18 05:57N 28°11' W 093°30'818.8
2018-May-18 05:31N 28°19' W 093°29'1018.9
2018-May-18 05:00N 28°29' W 093°29'918.8
2018-May-18 04:30N 28°38' W 093°28'918.7
2018-May-18 04:00N 28°47' W 093°27'918.3
2018-May-18 03:30N 28°56' W 093°26'1018.7
2018-May-18 03:00N 29°06' W 093°25'918.6
2018-May-18 02:30N 29°15' W 093°24'918.3
2018-May-18 02:00N 29°24' W 093°23'817.1
2018-May-18 01:30N 29°33' W 093°22'916.9
2018-May-18 01:00N 29°41' W 093°21'612.4
2018-May-18 00:30N 29°47' W 093°21'2 2.9
2018-May-17 23:48N 29°49' W 093°20'0 0.0
2018-May-17 23:27N 29°49' W 093°20'1 1.9
2018-May-17 23:01N 29°49' W 093°21'1 2.8
2018-May-17 22:29N 29°48' W 093°20'0 0.0
2018-May-17 21:59N 29°48' W 093°20'0 0.0
2018-May-17 20:59N 29°48' W 093°20'0 0.0
2018-May-17 20:20N 29°48' W 093°20'0 0.0
2018-May-17 19:41N 29°48' W 093°20'0 0.0
2018-May-17 19:26N 29°48' W 093°20'0 0.0
2018-May-17 18:56N 29°48' W 093°20'0 0.0
2018-May-17 18:26N 29°48' W 093°20'0 0.0
2018-May-17 18:00N 29°48' W 093°20'2 0.1
2018-May-17 05:30N 29°49' W 093°21'1 0.9
2018-May-17 04:45N 29°49' W 093°20'0 0.3
2018-May-17 04:14N 29°49' W 093°20'0 0.0
2018-May-17 03:47N 29°49' W 093°20'0 0.0
2018-May-17 03:30N 29°49' W 093°20'0 0.9
2018-May-17 03:00N 29°49' W 093°21'3 4.7
2018-May-17 02:27N 29°46' W 093°21'0 0.0
2018-May-17 02:00N 29°46' W 093°21'0 0.0
2018-May-17 01:30N 29°46' W 093°21'0 0.0
2018-May-17 00:58N 29°46' W 093°21'0 0.0
2018-May-17 00:30N 29°46' W 093°21'612.2
2018-May-17 00:00N 29°40' W 093°20'918.2
2018-May-16 23:30N 29°31' W 093°22'917.9
2018-May-16 23:00N 29°22' W 093°23'1019.3
2018-May-16 22:30N 29°13' W 093°24'1019.5
2018-May-16 21:58N 29°03' W 093°25'44 8.0
2018-May-16 16:28N 28°19' W 093°29'920.1
2018-May-16 16:00N 28°28' W 093°28'1120.3
2018-May-16 15:28N 28°39' W 093°27'1120.4
2018-May-16 14:55N 28°50' W 093°26'920.1
2018-May-16 14:27N 28°59' W 093°26'920.1
2018-May-16 13:59N 29°08' W 093°24'1019.8
2018-May-16 13:30N 29°18' W 093°23'1018.9
2018-May-16 13:00N 29°27' W 093°22'918.8
2018-May-16 12:30N 29°37' W 093°21'816.2
2018-May-16 12:00N 29°45' W 093°21'3 6.5
2018-May-16 11:30N 29°48' W 093°21'1 2.2
2018-May-16 11:00N 29°49' W 093°20'0 0.0
2018-May-16 10:30N 29°49' W 093°20'0 0.0
2018-May-16 10:00N 29°49' W 093°20'0 0.0
2018-May-16 09:30N 29°49' W 093°20'0 0.0
2018-May-16 09:00N 29°49' W 093°20'0 0.0
2018-May-16 08:27N 29°49' W 093°20'0 0.0
2018-May-16 08:00N 29°49' W 093°20'0 0.0
2018-May-16 07:30N 29°49' W 093°20'0 0.0
2018-May-16 07:00N 29°49' W 093°20'0 0.0
2018-May-16 06:30N 29°49' W 093°20'0 0.0
2018-May-16 05:57N 29°49' W 093°20'0 0.2
2018-May-16 05:29N 29°49' W 093°20'0 0.2
2018-May-16 04:59N 29°49' W 093°20'0 0.0
2018-May-16 04:30N 29°49' W 093°20'0 0.0
2018-May-16 04:00N 29°49' W 093°20'0 0.0
2018-May-16 03:30N 29°49' W 093°20'0 0.0
2018-May-16 03:01N 29°49' W 093°20'1 1.9
2018-May-16 02:30N 29°48' W 093°21'3 5.2
2018-May-16 02:00N 29°46' W 093°21'714.4
2018-May-16 01:30N 29°39' W 093°21'918.1
2018-May-16 01:01N 29°30' W 093°22'917.8
2018-May-16 00:30N 29°21' W 093°23'1019.1
2018-May-15 23:58N 29°10' W 093°24'1619.5
2018-May-15 23:08N 28°54' W 093°26'319.6
2018-May-15 22:59N 28°51' W 093°26'2419.4
2018-May-15 21:46N 28°28' W 093°29'619.2
2018-May-15 21:26N 28°22' W 093°29'819.2
2018-May-15 21:00N 28°13' W 093°30'1317.9
2018-May-15 20:16N 28°00' W 093°32'0 0.1
2018-May-15 20:00N 28°00' W 093°32'712.2
2018-May-15 19:27N 28°07' W 093°31'3620.4
2018-May-15 17:43N 28°42' W 093°26'620.4
2018-May-15 17:24N 28°48' W 093°25'819.9
2018-May-15 17:00N 28°57' W 093°26'1019.9
2018-May-15 16:29N 29°07' W 093°25'919.6
2018-May-15 16:00N 29°16' W 093°24'1019.3
2018-May-15 15:30N 29°26' W 093°22'918.4
2018-May-15 15:00N 29°35' W 093°22'917.2
2018-May-15 14:30N 29°43' W 093°21'510.0
2018-May-15 14:00N 29°48' W 093°21'1 2.1
2018-May-15 13:30N 29°49' W 093°20'0 0.0
2018-May-15 12:58N 29°49' W 093°20'0 0.0
2018-May-15 12:30N 29°49' W 093°20'1 1.5
2018-May-15 12:00N 29°49' W 093°21'612.0
2018-May-15 11:30N 29°43' W 093°20'917.0
2018-May-15 10:58N 29°34' W 093°21'817.6
2018-May-15 10:30N 29°26' W 093°22'918.5
2018-May-15 10:00N 29°16' W 093°23'1019.3
2018-May-15 09:30N 29°07' W 093°25'1019.7
2018-May-15 08:59N 28°57' W 093°25'1020.1
2018-May-15 08:30N 28°47' W 093°26'1120.4
2018-May-15 07:59N 28°37' W 093°28'1120.4
2018-May-15 07:27N 28°26' W 093°29'920.6
2018-May-15 07:00N 28°16' W 093°30'1020.2
2018-May-15 06:30N 28°06' W 093°31'612.0
2018-May-15 05:58N 28°00' W 093°32'0 0.0
2018-May-15 05:30N 28°00' W 093°32'4 8.7
2018-May-15 05:00N 28°04' W 093°31'1018.0
2018-May-15 04:25N 28°15' W 093°30'718.3
2018-May-15 04:00N 28°22' W 093°30'918.4
2018-May-15 03:30N 28°31' W 093°28'918.3
2018-May-15 03:01N 28°41' W 093°27'918.0
2018-May-15 02:30N 28°50' W 093°27'918.1
2018-May-15 01:59N 28°59' W 093°26'918.3
2018-May-15 01:30N 29°08' W 093°24'918.0
2018-May-15 01:00N 29°17' W 093°24'917.7
2018-May-15 00:30N 29°25' W 093°23'917.1
2018-May-15 00:00N 29°34' W 093°21'1016.4
2018-May-14 23:24N 29°44' W 093°20'410.2
2018-May-14 22:59N 29°48' W 093°21'1 2.8
2018-May-14 22:30N 29°49' W 093°20'0 0.0
2018-May-14 22:00N 29°49' W 093°20'3 1.5
2018-May-14 20:06N 29°46' W 093°21'1 4.0
2018-May-14 19:57N 29°47' W 093°21'2 5.3
2018-May-14 19:30N 29°49' W 093°20'0 0.0
2018-May-14 19:00N 29°49' W 093°20'0 0.0
2018-May-14 18:29N 29°49' W 093°20'0 0.5
2018-May-14 17:57N 29°49' W 093°21'3 7.1
2018-May-14 17:30N 29°46' W 093°21'612.6
2018-May-14 17:01N 29°40' W 093°21'1218.7
2018-May-14 16:21N 29°27' W 093°22'919.6
2018-May-14 15:54N 29°19' W 093°23'920.3
2018-May-14 15:29N 29°10' W 093°25'1120.2
2018-May-14 14:56N 28°59' W 093°26'920.4
2018-May-14 14:30N 28°51' W 093°26'1020.6
2018-May-14 14:00N 28°40' W 093°27'1121.0
2018-May-14 13:30N 28°30' W 093°28'1121.4
2018-May-14 13:00N 28°19' W 093°29'1121.3
2018-May-14 12:30N 28°09' W 093°30'6 2.5
2018-May-14 10:10N 28°14' W 093°30'418.2
2018-May-14 09:55N 28°19' W 093°29'819.0
2018-May-14 09:30N 28°27' W 093°28'918.9
2018-May-14 09:00N 28°36' W 093°28'1019.2
2018-May-14 08:31N 28°46' W 093°27'918.6
2018-May-14 08:00N 28°55' W 093°26'1019.2
2018-May-14 07:31N 29°04' W 093°25'918.8
2018-May-14 07:01N 29°14' W 093°24'1118.5
2018-May-14 06:24N 29°25' W 093°23'2413.9
2018-May-14 04:39N 29°49' W 093°20'0 0.2
2018-May-14 04:14N 29°49' W 093°20'2 0.1
2018-May-12 18:02N 29°48' W 093°20'0 0.0
2018-May-12 17:44N 29°48' W 093°20'  

Dump ship's entire track history